createdAt,value
2019-03-19T00:01:21.774Z,3.63
2019-03-19T00:03:50.993Z,3.17
2019-03-19T00:06:20.243Z,4.77
2019-03-19T00:08:49.843Z,3.77
2019-03-19T00:11:19.074Z,9.03
2019-03-19T00:13:48.922Z,5.83
2019-03-19T00:16:18.946Z,4.37
2019-03-19T00:18:48.891Z,7.50
2019-03-19T00:21:18.211Z,4.70
2019-03-19T00:23:47.943Z,4.97
2019-03-19T00:26:17.982Z,3.63
2019-03-19T00:28:47.933Z,5.70
2019-03-19T00:31:17.929Z,4.13
2019-03-19T00:33:47.765Z,3.57
2019-03-19T00:36:17.736Z,3.60
2019-03-19T00:38:47.712Z,5.07
2019-03-19T00:41:17.641Z,5.73
2019-03-19T00:43:47.522Z,4.43
2019-03-19T00:46:17.439Z,5.47
2019-03-19T00:48:47.356Z,4.77
2019-03-19T00:51:17.197Z,5.30
2019-03-19T00:53:46.519Z,3.90
2019-03-19T00:56:16.347Z,4.93
2019-03-19T00:58:45.682Z,4.63
2019-03-19T01:01:15.488Z,3.27
2019-03-19T01:03:45.368Z,5.70
2019-03-19T01:06:15.074Z,3.90
2019-03-19T01:08:44.312Z,5.83
2019-03-19T01:11:14.229Z,5.10
2019-03-19T01:13:43.464Z,3.70
2019-03-19T01:16:13.581Z,4.10
2019-03-19T01:18:43.796Z,5.07
2019-03-19T01:21:13.655Z,6.10
2019-03-19T01:23:42.991Z,4.33
2019-03-19T01:26:12.802Z,5.67
2019-03-19T01:28:42.076Z,4.63
2019-03-19T01:31:11.913Z,3.43
2019-03-19T01:33:41.852Z,7.43
2019-03-19T01:36:11.781Z,6.60
2019-03-19T01:38:41.715Z,6.40
2019-03-19T01:41:11.933Z,6.03
2019-03-19T01:43:41.285Z,4.93
2019-03-19T01:46:11.013Z,5.93
2019-03-19T01:48:40.870Z,4.40
2019-03-19T01:51:10.773Z,5.47
2019-03-19T01:53:40.725Z,5.83
2019-03-19T01:56:09.961Z,5.10
2019-03-19T01:58:39.725Z,5.60
2019-03-19T02:01:09.033Z,5.90
2019-03-19T02:03:38.816Z,5.70
2019-03-19T02:06:08.140Z,5.80
2019-03-19T02:08:37.993Z,9.10
2019-03-19T02:11:08.209Z,4.77
2019-03-19T02:13:37.547Z,4.90
2019-03-19T02:16:06.978Z,5.73
2019-03-19T02:18:36.782Z,6.17
2019-03-19T02:21:06.714Z,8.80
2019-03-19T02:23:36.579Z,3.97
2019-03-19T02:26:16.087Z,5.70
2019-03-19T02:28:37.443Z,3.50
2019-03-19T02:31:07.362Z,4.10
2019-03-19T02:33:37.328Z,4.70
2019-03-19T02:36:06.649Z,4.67
2019-03-19T02:38:35.921Z,4.77
2019-03-19T02:41:05.158Z,5.13
2019-03-19T02:43:34.417Z,4.17
2019-03-19T02:46:03.716Z,4.20
2019-03-19T02:48:32.973Z,3.83
2019-03-19T02:51:02.792Z,5.17
2019-03-19T02:53:32.123Z,5.73
2019-03-19T02:56:01.951Z,5.47
2019-03-19T02:58:31.876Z,9.17
2019-03-19T03:01:01.722Z,4.87
2019-03-19T03:03:31.666Z,4.23
2019-03-19T03:06:01.604Z,5.30
2019-03-19T03:08:31.557Z,6.77
2019-03-19T03:11:01.460Z,7.97
2019-03-19T03:13:31.418Z,5.33
2019-03-19T03:16:01.342Z,4.17
2019-03-19T03:18:31.287Z,4.40
2019-03-19T03:21:01.191Z,4.67
2019-03-19T03:23:31.157Z,4.40
2019-03-19T03:26:01.091Z,4.57
2019-03-19T03:28:30.379Z,5.10
2019-03-19T03:30:59.641Z,8.40
2019-03-19T03:33:29.459Z,4.20
2019-03-19T03:35:59.374Z,4.80
2019-03-19T03:38:28.730Z,6.17
2019-03-19T03:40:57.884Z,4.77
2019-03-19T03:43:27.030Z,3.90
2019-03-19T03:45:56.799Z,4.33
2019-03-19T03:48:26.952Z,4.20
2019-03-19T03:50:56.886Z,5.97
2019-03-19T03:53:26.739Z,3.60
2019-03-19T03:55:56.707Z,3.73
2019-03-19T03:58:26.630Z,4.53
2019-03-19T04:00:56.813Z,6.03
2019-03-19T04:03:26.706Z,5.63
2019-03-19T04:05:56.035Z,3.93
2019-03-19T04:08:25.247Z,3.67
2019-03-19T04:10:54.485Z,4.47
2019-03-19T04:13:24.255Z,5.17
2019-03-19T04:15:54.194Z,5.17
2019-03-19T04:18:23.513Z,6.37
2019-03-19T04:20:53.297Z,4.70
2019-03-19T04:23:23.197Z,5.10
2019-03-19T04:25:53.303Z,6.77
2019-03-19T04:28:23.235Z,6.40
2019-03-19T04:30:52.586Z,4.53
2019-03-19T04:33:21.818Z,5.63
2019-03-19T04:35:51.641Z,6.40
2019-03-19T04:38:21.458Z,5.83
2019-03-19T04:40:50.785Z,6.33
2019-03-19T04:43:20.547Z,5.63
2019-03-19T04:45:49.879Z,5.60
2019-03-19T04:48:19.078Z,4.70
2019-03-19T04:50:48.359Z,6.03
2019-03-19T04:53:17.570Z,6.23
2019-03-19T04:55:47.803Z,8.37
2019-03-19T04:58:17.621Z,7.47
2019-03-19T05:00:47.475Z,6.37
2019-03-19T05:03:17.377Z,6.73
2019-03-19T05:05:47.312Z,6.97
2019-03-19T05:08:17.414Z,8.50
2019-03-19T05:10:47.261Z,8.67
2019-03-19T05:13:17.130Z,9.30
2019-03-19T05:15:47.030Z,7.43
2019-03-19T05:18:16.929Z,9.40
2019-03-19T05:20:46.775Z,6.10
2019-03-19T05:23:16.669Z,8.43
2019-03-19T05:25:45.985Z,8.33
2019-03-19T05:28:15.746Z,7.07
2019-03-19T05:30:46.021Z,7.93
2019-03-19T05:33:15.256Z,6.73
2019-03-19T05:35:45.114Z,9.57
2019-03-19T05:38:14.402Z,9.30
2019-03-19T05:40:43.893Z,8.60
2019-03-19T05:43:13.657Z,8.13
2019-03-19T05:45:44.689Z,8.23
2019-03-19T05:48:14.598Z,9.77
2019-03-19T05:50:44.516Z,8.13
2019-03-19T05:53:13.763Z,9.53
2019-03-19T05:55:43.606Z,10.13
2019-03-19T05:58:12.855Z,11.43
2019-03-19T06:00:42.717Z,10.13
2019-03-19T06:03:11.973Z,8.10
2019-03-19T06:05:41.814Z,11.17
2019-03-19T06:08:11.719Z,8.53
2019-03-19T06:10:41.069Z,9.60
2019-03-19T06:13:10.917Z,9.60
2019-03-19T06:15:41.933Z,9.70
2019-03-19T06:18:11.357Z,11.67
2019-03-19T06:20:40.638Z,12.63
2019-03-19T06:23:10.445Z,11.00
2019-03-19T06:25:39.703Z,14.10
2019-03-19T06:28:09.569Z,10.87
2019-03-19T06:30:39.468Z,10.80
2019-03-19T06:33:09.425Z,12.93
2019-03-19T06:35:39.304Z,9.63
2019-03-19T06:38:09.305Z,12.00
2019-03-19T06:40:39.236Z,10.80
2019-03-19T06:43:09.156Z,8.53
2019-03-19T06:45:39.061Z,9.17
2019-03-19T06:48:09.049Z,9.63
2019-03-19T06:50:45.031Z,6.60
2019-03-19T06:53:10.436Z,7.53
2019-03-19T06:55:40.326Z,7.10
2019-03-19T06:58:11.176Z,7.27
2019-03-19T07:00:40.789Z,6.53
2019-03-19T07:03:10.645Z,9.50
2019-03-19T07:05:40.572Z,6.50
2019-03-19T07:08:09.878Z,6.87
2019-03-19T07:10:39.723Z,9.00
2019-03-19T07:13:09.043Z,6.47
2019-03-19T07:15:38.254Z,8.00
2019-03-19T07:18:08.122Z,7.07
2019-03-19T07:20:38.034Z,9.57
2019-03-19T07:23:07.368Z,9.67
2019-03-19T07:25:36.592Z,10.57
2019-03-19T07:28:06.173Z,8.93
2019-03-19T07:30:36.032Z,10.60
2019-03-19T07:33:06.192Z,7.73
2019-03-19T07:35:35.502Z,10.87
2019-03-19T07:38:05.369Z,8.83
2019-03-19T07:40:35.289Z,9.20
2019-03-19T07:43:04.592Z,8.57
2019-03-19T07:45:34.332Z,9.57
2019-03-19T07:48:03.662Z,10.17
2019-03-19T07:50:32.800Z,9.33
2019-03-19T07:53:02.025Z,8.20
2019-03-19T07:55:31.890Z,8.03
2019-03-19T07:58:01.193Z,9.93
2019-03-19T08:00:31.017Z,6.83
2019-03-19T08:03:00.865Z,7.77
2019-03-19T08:05:33.391Z,7.97
2019-03-19T08:08:02.360Z,8.70
2019-03-19T08:10:32.276Z,8.73
2019-03-19T08:13:01.796Z,9.93
2019-03-19T08:15:31.633Z,6.23
2019-03-19T08:18:00.952Z,7.23
2019-03-19T08:20:30.751Z,9.13
2019-03-19T08:23:00.057Z,8.60
2019-03-19T08:25:29.890Z,7.33
2019-03-19T08:27:59.225Z,14.03
2019-03-19T08:30:29.065Z,9.17
2019-03-19T08:32:59.092Z,6.67
2019-03-19T08:35:29.007Z,6.07
2019-03-19T08:37:58.981Z,9.70
2019-03-19T08:40:29.101Z,8.43
2019-03-19T08:42:58.461Z,9.57
2019-03-19T08:45:28.239Z,8.67
2019-03-19T08:47:58.195Z,7.90
2019-03-19T08:50:28.113Z,8.93
2019-03-19T08:52:57.684Z,6.33
2019-03-19T08:55:27.498Z,9.57
2019-03-19T08:57:56.814Z,7.20
2019-03-19T09:00:26.640Z,9.03
2019-03-19T09:02:56.514Z,6.77
2019-03-19T09:05:26.534Z,6.90
2019-03-19T09:07:56.465Z,5.97
2019-03-19T09:10:26.372Z,7.50
2019-03-19T09:12:56.322Z,6.27
2019-03-19T09:15:25.962Z,6.40
2019-03-19T09:17:55.786Z,8.03
2019-03-19T09:20:25.129Z,8.37
2019-03-19T09:22:54.881Z,7.47
2019-03-19T09:25:24.835Z,7.97
2019-03-19T09:27:54.744Z,9.70
2019-03-19T09:30:24.689Z,8.90
2019-03-19T09:32:54.558Z,9.30
2019-03-19T09:35:26.135Z,9.40
2019-03-19T09:37:58.895Z,11.60
2019-03-19T09:40:26.952Z,8.40
2019-03-19T09:42:56.367Z,11.93
2019-03-19T09:45:26.215Z,13.77
2019-03-19T09:47:56.121Z,7.57
2019-03-19T09:50:26.058Z,8.47
2019-03-19T09:52:55.361Z,7.37
2019-03-19T09:55:25.170Z,9.30
2019-03-19T09:57:55.017Z,7.37
2019-03-19T10:00:24.965Z,10.10
2019-03-19T10:02:54.815Z,8.50
2019-03-19T10:05:24.740Z,7.80
2019-03-19T10:07:55.679Z,5.83
2019-03-19T10:10:25.476Z,6.53
2019-03-19T10:12:55.370Z,6.47
2019-03-19T10:15:25.309Z,6.07
2019-03-19T10:17:55.176Z,6.90
2019-03-19T10:20:24.442Z,3.63
2019-03-19T10:22:54.281Z,4.97
2019-03-19T10:25:24.252Z,6.17
2019-03-19T10:27:54.194Z,5.40
2019-03-19T10:30:24.145Z,5.03
2019-03-19T10:32:54.046Z,4.20
2019-03-19T10:35:23.381Z,4.73
2019-03-19T10:37:52.535Z,3.70
2019-03-19T10:40:22.401Z,4.10
2019-03-19T10:42:52.300Z,4.60
2019-03-19T10:45:21.629Z,6.37
2019-03-19T10:47:51.448Z,6.10
2019-03-19T10:50:21.505Z,5.83
2019-03-19T10:52:51.830Z,5.90
2019-03-19T10:55:21.811Z,4.70
2019-03-19T10:57:51.905Z,4.13
2019-03-19T11:00:22.293Z,4.70
2019-03-19T11:02:52.167Z,3.27
2019-03-19T11:05:22.559Z,4.87
2019-03-19T11:07:51.930Z,5.30
2019-03-19T11:10:22.179Z,5.67
2019-03-19T11:12:52.076Z,4.27
2019-03-19T11:15:22.047Z,5.53
2019-03-19T11:17:51.345Z,7.43
2019-03-19T11:20:21.522Z,4.97
2019-03-19T11:22:51.427Z,6.73
2019-03-19T11:25:21.398Z,2.73
2019-03-19T11:27:50.801Z,3.73
2019-03-19T11:30:23.159Z,3.57
2019-03-19T11:32:52.949Z,4.30
2019-03-19T11:35:22.477Z,3.80
2019-03-19T11:37:52.219Z,5.17
2019-03-19T11:40:22.365Z,4.50
2019-03-19T11:42:52.543Z,6.30
2019-03-19T11:45:22.797Z,6.57
2019-03-19T11:47:52.894Z,4.43
2019-03-19T11:50:22.573Z,6.57
2019-03-19T11:52:52.712Z,6.60
2019-03-19T11:55:22.154Z,6.90
2019-03-19T11:57:51.315Z,4.57
2019-03-19T12:00:32.158Z,5.00
2019-03-19T12:03:11.489Z,6.87
2019-03-19T12:05:33.004Z,8.07
2019-03-19T12:08:02.298Z,4.73
2019-03-19T12:10:32.099Z,6.50
2019-03-19T12:13:02.019Z,7.77
2019-03-19T12:15:31.342Z,3.17
2019-03-19T12:18:01.217Z,4.57
2019-03-19T12:20:31.142Z,5.70
2019-03-19T12:23:00.984Z,4.93
2019-03-19T12:25:31.414Z,4.70
2019-03-19T12:28:01.495Z,6.67
2019-03-19T12:30:30.834Z,4.07
2019-03-19T12:33:00.719Z,11.63
2019-03-19T12:35:31.090Z,3.63
2019-03-19T12:38:00.496Z,7.60
2019-03-19T12:40:36.858Z,5.80
2019-03-19T12:43:01.226Z,4.27
2019-03-19T12:45:31.095Z,4.00
2019-03-19T12:48:00.575Z,3.93
2019-03-19T12:50:29.727Z,3.50
2019-03-19T12:52:59.099Z,5.10
2019-03-19T12:55:28.585Z,4.27
2019-03-19T12:57:57.890Z,3.93
2019-03-19T13:00:34.173Z,3.43
2019-03-19T13:02:59.671Z,3.47
2019-03-19T13:05:28.973Z,3.43
2019-03-19T13:07:58.217Z,3.70
2019-03-19T13:10:28.035Z,5.73
2019-03-19T13:12:57.391Z,5.60
2019-03-19T13:15:27.330Z,6.07
2019-03-19T13:17:57.079Z,4.13
2019-03-19T13:20:26.308Z,6.47
2019-03-19T13:22:56.260Z,2.93
2019-03-19T13:25:26.173Z,6.37
2019-03-19T13:27:55.427Z,4.50
2019-03-19T13:30:25.237Z,5.07
2019-03-19T13:32:54.565Z,4.10
2019-03-19T13:35:24.394Z,4.77
2019-03-19T13:37:54.327Z,5.33
2019-03-19T13:40:24.245Z,6.33
2019-03-19T13:42:54.211Z,6.47
2019-03-19T13:45:23.499Z,3.13
2019-03-19T13:47:53.353Z,7.53
2019-03-19T13:50:22.929Z,6.50
2019-03-19T13:52:52.093Z,4.00
2019-03-19T13:55:21.327Z,6.03
2019-03-19T13:57:50.595Z,5.80
2019-03-19T14:00:19.897Z,4.50
2019-03-19T14:02:49.421Z,4.77
2019-03-19T14:05:18.664Z,4.80
2019-03-19T14:07:47.929Z,4.90
2019-03-19T14:10:17.870Z,6.83
2019-03-19T14:12:47.317Z,2.93
2019-03-19T14:15:16.577Z,2.83
2019-03-19T14:17:46.448Z,6.70
2019-03-19T14:20:16.902Z,6.17
2019-03-19T14:22:47.055Z,4.43
2019-03-19T14:25:16.382Z,4.20
2019-03-19T14:27:45.608Z,4.70
2019-03-19T14:30:15.695Z,4.50
2019-03-19T14:32:45.548Z,4.47
2019-03-19T14:35:15.407Z,3.50
2019-03-19T14:37:45.559Z,6.60
2019-03-19T14:40:15.515Z,4.70
2019-03-19T14:42:45.381Z,4.37
2019-03-19T14:45:14.906Z,4.27
2019-03-19T14:47:44.994Z,4.97
2019-03-19T14:50:14.632Z,5.77
2019-03-19T14:52:44.450Z,5.87
2019-03-19T14:55:14.381Z,3.43
2019-03-19T14:57:44.346Z,3.23
2019-03-19T15:00:14.420Z,3.60
2019-03-19T15:02:44.298Z,4.10
2019-03-19T15:05:13.812Z,3.27
2019-03-19T15:07:43.913Z,5.40
2019-03-19T15:10:15.027Z,4.97
2019-03-19T15:12:44.945Z,5.83
2019-03-19T15:15:15.610Z,6.30
2019-03-19T15:17:44.897Z,5.00
2019-03-19T15:20:15.225Z,5.70
2019-03-19T15:22:45.021Z,5.83
2019-03-19T15:25:14.979Z,4.67
2019-03-19T15:27:44.889Z,4.70
2019-03-19T15:30:15.485Z,5.97
2019-03-19T15:32:44.833Z,6.00
2019-03-19T15:35:14.683Z,5.80
2019-03-19T15:37:43.970Z,5.73
2019-03-19T15:40:13.339Z,6.70
2019-03-19T15:42:43.202Z,4.73
2019-03-19T15:45:12.589Z,8.23
2019-03-19T15:47:42.334Z,6.40
2019-03-19T15:50:14.169Z,6.47
2019-03-19T15:52:44.264Z,6.33
2019-03-19T15:55:14.500Z,5.80
2019-03-19T15:57:44.527Z,6.63
2019-03-19T16:00:15.728Z,9.93
2019-03-19T16:02:45.657Z,4.23
2019-03-19T16:05:15.698Z,8.43
2019-03-19T16:07:45.842Z,6.50
2019-03-19T16:10:15.143Z,6.43
2019-03-19T16:12:44.391Z,7.73
2019-03-19T16:15:14.647Z,4.20
2019-03-19T16:17:44.462Z,5.17
2019-03-19T16:20:14.194Z,5.37
2019-03-19T16:22:44.013Z,6.00
2019-03-19T16:25:13.323Z,6.80
2019-03-19T16:27:43.064Z,7.67
2019-03-19T16:30:14.121Z,7.87
2019-03-19T16:32:44.054Z,5.40
2019-03-19T16:35:13.577Z,6.17
2019-03-19T16:37:43.937Z,4.27
2019-03-19T16:40:14.653Z,4.77
2019-03-19T16:42:44.397Z,5.07
2019-03-19T16:45:13.812Z,5.60
2019-03-19T16:47:43.558Z,5.53
2019-03-19T16:50:14.340Z,4.90
2019-03-19T16:52:43.557Z,5.40
2019-03-19T16:55:13.131Z,6.10
2019-03-19T16:57:42.932Z,7.27
2019-03-19T17:00:13.511Z,7.70
2019-03-19T17:02:43.067Z,3.30
2019-03-19T17:05:13.831Z,6.07
2019-03-19T17:07:43.735Z,5.60
2019-03-19T17:10:13.637Z,9.63
2019-03-19T17:12:42.962Z,8.23
2019-03-19T17:15:13.865Z,5.90
2019-03-19T17:17:43.153Z,6.90
2019-03-19T17:20:13.581Z,9.40
2019-03-19T17:22:42.806Z,6.93
2019-03-19T17:25:12.719Z,7.30
2019-03-19T17:27:42.713Z,8.07
2019-03-19T17:30:18.523Z,6.47
2019-03-19T17:32:48.449Z,8.93
2019-03-19T17:35:17.704Z,9.67
2019-03-19T17:37:47.522Z,6.60
2019-03-19T17:40:17.876Z,5.03
2019-03-19T17:42:47.261Z,10.27
2019-03-19T17:45:18.885Z,7.07
2019-03-19T17:47:47.972Z,9.47
2019-03-19T17:50:19.115Z,10.17
2019-03-19T17:52:49.802Z,6.43
2019-03-19T17:55:20.007Z,6.90
2019-03-19T17:57:49.322Z,11.20
2019-03-19T18:00:22.209Z,8.57
2019-03-19T18:02:51.417Z,9.33
2019-03-19T18:05:20.577Z,8.37
2019-03-19T18:07:50.010Z,8.13
2019-03-19T18:10:19.230Z,6.50
2019-03-19T18:12:48.481Z,6.20
2019-03-19T18:15:18.316Z,7.83
2019-03-19T18:17:47.657Z,5.53
2019-03-19T18:20:17.651Z,7.03
2019-03-19T18:22:47.033Z,8.83
2019-03-19T18:25:17.382Z,7.80
2019-03-19T18:27:47.317Z,6.00
2019-03-19T18:30:17.244Z,8.93
2019-03-19T18:32:46.652Z,6.30
2019-03-19T18:35:16.523Z,6.60
2019-03-19T18:37:46.463Z,11.47
2019-03-19T18:40:16.576Z,7.00
2019-03-19T18:42:47.081Z,8.13
2019-03-19T18:45:17.339Z,7.40
2019-03-19T18:47:46.684Z,10.17
2019-03-19T18:50:16.541Z,11.93
2019-03-19T18:52:46.482Z,13.37
2019-03-19T18:55:16.870Z,17.13
2019-03-19T18:57:46.803Z,5.40
2019-03-19T19:00:16.941Z,8.27
2019-03-19T19:02:50.199Z,11.37
2019-03-19T19:05:17.877Z,15.70
2019-03-19T19:07:47.308Z,9.53
2019-03-19T19:10:17.374Z,7.17
2019-03-19T19:12:46.694Z,9.57
2019-03-19T19:15:15.932Z,11.10
2019-03-19T19:17:45.179Z,7.67
2019-03-19T19:20:14.326Z,9.90
2019-03-19T19:22:44.302Z,11.47
2019-03-19T19:25:13.980Z,8.57
2019-03-19T19:27:43.846Z,10.23
2019-03-19T19:30:16.010Z,8.93
2019-03-19T19:32:45.562Z,9.60
2019-03-19T19:35:15.082Z,12.60
2019-03-19T19:37:45.174Z,9.53
2019-03-19T19:40:14.637Z,9.43
2019-03-19T19:42:44.522Z,10.00
2019-03-19T19:45:13.876Z,9.53
2019-03-19T19:47:43.101Z,5.97
2019-03-19T19:50:12.948Z,11.20
2019-03-19T19:52:42.786Z,18.17
2019-03-19T19:55:12.232Z,11.43
2019-03-19T19:57:42.002Z,11.73
2019-03-19T20:00:12.383Z,17.47
2019-03-19T20:02:42.635Z,17.43
2019-03-19T20:05:11.941Z,15.07
2019-03-19T20:07:41.730Z,17.40
2019-03-19T20:10:12.521Z,14.10
2019-03-19T20:12:44.142Z,18.77
2019-03-19T20:15:13.540Z,16.33
2019-03-19T20:17:43.012Z,14.43
2019-03-19T20:20:13.422Z,17.40
2019-03-19T20:22:44.794Z,19.13
2019-03-19T20:25:14.331Z,18.10
2019-03-19T20:27:47.187Z,16.93
2019-03-19T20:30:18.537Z,16.60
2019-03-19T20:32:47.887Z,20.13
2019-03-19T20:35:17.821Z,19.33
2019-03-19T20:37:47.081Z,22.10
2019-03-19T20:40:16.543Z,17.57
2019-03-19T20:42:46.410Z,17.70
2019-03-19T20:45:15.754Z,17.60
2019-03-19T20:47:45.560Z,16.60
2019-03-19T20:50:16.354Z,15.17
2019-03-19T20:52:46.202Z,21.80
2019-03-19T20:55:15.517Z,16.53
2019-03-19T20:57:45.269Z,19.17
2019-03-19T21:00:15.398Z,15.67
2019-03-19T21:02:45.213Z,15.27
2019-03-19T21:05:14.565Z,15.47
2019-03-19T21:07:43.711Z,12.90
2019-03-19T21:10:14.148Z,16.47
2019-03-19T21:12:43.357Z,19.53
2019-03-19T21:15:21.063Z,15.87
2019-03-19T21:17:50.910Z,21.87
2019-03-19T21:20:21.041Z,18.73
2019-03-19T21:22:51.265Z,16.10
2019-03-19T21:25:20.586Z,17.13
2019-03-19T21:27:49.825Z,19.70
2019-03-19T21:30:19.679Z,20.60
2019-03-19T21:32:49.010Z,18.70
2019-03-19T21:35:20.740Z,16.63
2019-03-19T21:37:50.036Z,29.07
2019-03-19T21:40:19.916Z,18.30
2019-03-19T21:42:49.221Z,20.70
2019-03-19T21:45:19.202Z,23.53
2019-03-19T21:47:48.506Z,18.40
2019-03-19T21:50:18.661Z,19.70
2019-03-19T21:52:48.499Z,18.87
2019-03-19T21:55:17.866Z,18.20
2019-03-19T21:57:47.681Z,18.07
2019-03-19T22:00:18.169Z,12.17
2019-03-19T22:02:48.271Z,15.53
2019-03-19T22:05:18.280Z,12.97
2019-03-19T22:07:48.229Z,28.77
2019-03-19T22:10:18.196Z,13.57
2019-03-19T22:12:49.529Z,13.97
2019-03-19T22:15:19.301Z,15.60
2019-03-19T22:17:48.529Z,13.63
2019-03-19T22:20:18.721Z,15.27
2019-03-19T22:22:48.588Z,14.40
2019-03-19T22:25:17.905Z,13.33
2019-03-19T22:27:47.646Z,14.70
2019-03-19T22:30:17.170Z,16.93
2019-03-19T22:32:46.348Z,12.60
2019-03-19T22:35:16.472Z,12.33
2019-03-19T22:37:46.436Z,12.97
2019-03-19T22:40:16.365Z,11.03
2019-03-19T22:42:45.698Z,14.23
2019-03-19T22:45:14.930Z,14.53
2019-03-19T22:47:44.758Z,10.07
2019-03-19T22:50:14.342Z,11.03
2019-03-19T22:52:43.559Z,11.37
2019-03-19T22:55:12.982Z,10.93
2019-03-19T22:57:42.319Z,11.80
2019-03-19T23:00:17.714Z,13.47
2019-03-19T23:02:47.649Z,9.40
2019-03-19T23:05:17.795Z,12.53
2019-03-19T23:07:47.676Z,10.27
2019-03-19T23:10:17.522Z,12.57
2019-03-19T23:12:49.927Z,13.80
2019-03-19T23:15:20.387Z,9.10
2019-03-19T23:17:52.424Z,7.33
2019-03-19T23:20:21.626Z,11.33
2019-03-19T23:22:50.825Z,9.10
2019-03-19T23:25:19.989Z,9.90
2019-03-19T23:27:49.816Z,14.80
2019-03-19T23:30:19.765Z,11.07
2019-03-19T23:32:49.694Z,14.10
2019-03-19T23:35:19.614Z,9.67
2019-03-19T23:37:49.505Z,9.37
2019-03-19T23:40:19.388Z,10.63
2019-03-19T23:42:48.705Z,12.87
2019-03-19T23:45:18.537Z,8.60
2019-03-19T23:47:48.459Z,9.70
2019-03-19T23:50:18.683Z,10.07
2019-03-19T23:52:48.786Z,14.33
2019-03-19T23:55:18.751Z,18.93
2019-03-19T23:57:48.614Z,12.50
